createdAt,value
2023-05-10T00:00:11.092Z,1009.51
2023-05-10T00:01:17.204Z,1009.49
2023-05-10T00:02:23.358Z,1009.51
2023-05-10T00:03:29.437Z,1009.46
2023-05-10T00:04:35.478Z,1009.43
2023-05-10T00:05:41.588Z,1009.45
2023-05-10T00:06:47.681Z,1009.48
2023-05-10T00:07:53.761Z,1009.45
2023-05-10T00:08:59.890Z,1009.47
2023-05-10T00:10:05.950Z,1009.43
2023-05-10T00:11:12.029Z,1009.44
2023-05-10T00:12:18.139Z,1009.44
2023-05-10T00:13:24.308Z,1009.43
2023-05-10T00:14:30.324Z,1009.43
2023-05-10T00:15:36.405Z,1009.42
2023-05-10T00:16:42.529Z,1009.41
2023-05-10T00:17:48.632Z,1009.34
2023-05-10T00:18:54.693Z,1009.34
2023-05-10T00:20:00.785Z,1009.34
2023-05-10T00:21:06.885Z,1009.32
2023-05-10T00:22:12.997Z,1009.28
2023-05-10T00:23:19.090Z,1009.3
2023-05-10T00:24:25.170Z,1009.27
2023-05-10T00:25:31.266Z,1009.26
2023-05-10T00:26:37.277Z,1009.22
2023-05-10T00:27:43.394Z,1009.26
2023-05-10T00:28:49.546Z,1009.23
2023-05-10T00:29:55.640Z,1009.22
2023-05-10T00:31:01.748Z,1009.19
2023-05-10T00:32:07.845Z,1009.22
2023-05-10T00:33:13.916Z,1009.22
2023-05-10T00:34:20.032Z,1009.24
2023-05-10T00:35:26.113Z,1009.2
2023-05-10T00:36:32.312Z,1009.2
2023-05-10T00:37:38.244Z,1009.22
2023-05-10T00:38:44.434Z,1009.16
2023-05-10T00:39:50.491Z,1009.17
2023-05-10T00:40:56.532Z,1009.13
2023-05-10T00:42:02.692Z,1009.18
2023-05-10T00:43:08.785Z,1009.14
2023-05-10T00:44:14.869Z,1009.15
2023-05-10T00:46:27.142Z,1009.18
2023-05-10T00:47:33.216Z,1009.1
2023-05-10T00:48:39.282Z,1009.17
2023-05-10T00:49:45.343Z,1009.06
2023-05-10T00:50:51.347Z,1009.11
2023-05-10T00:51:57.536Z,1009.08
2023-05-10T00:53:03.618Z,1009.1
2023-05-10T00:54:09.754Z,1009.08
2023-05-10T00:55:15.851Z,1009.08
2023-05-10T00:56:21.954Z,1009.07
2023-05-10T00:57:28.032Z,1009.04
2023-05-10T00:58:34.150Z,1009.05
2023-05-10T00:59:40.206Z,1009.08
2023-05-10T01:00:46.295Z,1009.07
2023-05-10T01:01:52.431Z,1009.06
2023-05-10T01:02:58.556Z,1009.06
2023-05-10T01:04:04.587Z,1009
2023-05-10T01:05:10.715Z,1009
2023-05-10T01:06:16.774Z,1009.05
2023-05-10T01:07:22.866Z,1009.03
2023-05-10T01:08:28.971Z,1009.02
2023-05-10T01:09:35.068Z,1008.98
2023-05-10T01:10:41.073Z,1009.02
2023-05-10T01:11:47.167Z,1009
2023-05-10T01:12:53.399Z,1009.02
2023-05-10T01:13:59.442Z,1009.03
2023-05-10T01:15:05.537Z,1009.03
2023-05-10T01:16:11.663Z,1008.99
2023-05-10T01:17:17.736Z,1009.03
2023-05-10T01:18:23.822Z,1008.96
2023-05-10T01:19:29.880Z,1009.02
2023-05-10T01:20:35.998Z,1009
2023-05-10T01:21:42.086Z,1008.96
2023-05-10T01:22:48.108Z,1009
2023-05-10T01:23:54.278Z,1008.96
2023-05-10T01:25:00.362Z,1008.99
2023-05-10T01:26:06.473Z,1008.97
2023-05-10T01:27:12.589Z,1008.98
2023-05-10T01:28:18.677Z,1008.95
2023-05-10T01:29:24.769Z,1008.95
2023-05-10T01:30:30.894Z,1008.94
2023-05-10T01:31:37.005Z,1008.92
2023-05-10T01:32:43.066Z,1008.92
2023-05-10T01:33:49.148Z,1008.95
2023-05-10T01:34:55.150Z,1008.89
2023-05-10T01:36:01.369Z,1008.94
2023-05-10T01:37:07.472Z,1008.95
2023-05-10T01:38:13.522Z,1008.96
2023-05-10T01:39:19.612Z,1008.93
2023-05-10T01:40:25.705Z,1008.94
2023-05-10T01:41:31.793Z,1008.94
2023-05-10T01:42:37.909Z,1008.96
2023-05-10T01:43:44.011Z,1008.93
2023-05-10T01:44:50.090Z,1008.91
2023-05-10T01:45:56.191Z,1008.9
2023-05-10T01:47:02.347Z,1008.87
2023-05-10T01:48:08.545Z,1008.87
2023-05-10T01:49:14.459Z,1008.86
2023-05-10T01:50:20.571Z,1008.87
2023-05-10T01:51:26.643Z,1008.81
2023-05-10T01:52:32.775Z,1008.87
2023-05-10T01:53:38.877Z,1008.9
2023-05-10T01:54:44.920Z,1008.82
2023-05-10T01:55:51.046Z,1008.85
2023-05-10T01:56:57.143Z,1008.88
2023-05-10T01:58:03.229Z,1008.88
2023-05-10T01:59:09.321Z,1008.83
2023-05-10T02:00:15.795Z,1008.81
2023-05-10T02:01:21.596Z,1008.85
2023-05-10T02:02:27.622Z,1008.85
2023-05-10T02:03:33.716Z,1008.84
2023-05-10T02:04:39.822Z,1008.8
2023-05-10T02:05:45.912Z,1008.81
2023-05-10T02:06:51.961Z,1008.79
2023-05-10T02:07:57.980Z,1008.76
2023-05-10T02:09:04.165Z,1008.8
2023-05-10T02:10:10.240Z,1008.77
2023-05-10T02:11:16.374Z,1008.76
2023-05-10T02:12:22.448Z,1008.78
2023-05-10T02:13:28.616Z,1008.81
2023-05-10T02:14:34.623Z,1008.78
2023-05-10T02:15:40.727Z,1008.74
2023-05-10T02:16:46.856Z,1008.79
2023-05-10T02:17:52.856Z,1008.75
2023-05-10T02:18:59.011Z,1008.82
2023-05-10T02:20:05.082Z,1008.78
2023-05-10T02:21:11.197Z,1008.81
2023-05-10T02:22:17.276Z,1008.76
2023-05-10T02:23:23.414Z,1008.76
2023-05-10T02:24:29.516Z,1008.73
2023-05-10T02:25:35.584Z,1008.77
2023-05-10T02:26:41.680Z,1008.74
2023-05-10T02:27:47.776Z,1008.69
2023-05-10T02:28:53.882Z,1008.69
2023-05-10T02:29:59.964Z,1008.74
2023-05-10T02:31:06.076Z,1008.69
2023-05-10T02:32:12.217Z,1008.72
2023-05-10T02:33:18.253Z,1008.69
2023-05-10T02:34:24.351Z,1008.69
2023-05-10T02:35:36.508Z,1008.71
2023-05-10T02:36:42.669Z,1008.76
2023-05-10T02:37:48.778Z,1008.7
2023-05-10T02:38:54.872Z,1008.72
2023-05-10T02:40:00.965Z,1008.72
2023-05-10T02:41:07.059Z,1008.69
2023-05-10T02:42:13.177Z,1008.73
2023-05-10T02:43:19.249Z,1008.73
2023-05-10T02:44:25.378Z,1008.76
2023-05-10T02:45:31.506Z,1008.68
2023-05-10T02:46:37.582Z,1008.7
2023-05-10T02:47:43.574Z,1008.65
2023-05-10T02:48:49.640Z,1008.69
2023-05-10T02:49:55.797Z,1008.68
2023-05-10T02:51:01.911Z,1008.64
2023-05-10T02:52:08.025Z,1008.65
2023-05-10T02:53:14.112Z,1008.64
2023-05-10T02:54:20.210Z,1008.66
2023-05-10T02:55:26.219Z,1008.69
2023-05-10T02:56:32.310Z,1008.66
2023-05-10T02:57:38.469Z,1008.65
2023-05-10T02:58:44.600Z,1008.67
2023-05-10T02:59:50.695Z,1008.64
2023-05-10T03:00:56.757Z,1008.68
2023-05-10T03:02:02.875Z,1008.62
2023-05-10T03:03:09.030Z,1008.62
2023-05-10T03:04:15.069Z,1008.62
2023-05-10T03:05:21.158Z,1008.58
2023-05-10T03:06:27.246Z,1008.56
2023-05-10T03:07:33.246Z,1008.58
2023-05-10T03:08:39.358Z,1008.57
2023-05-10T03:09:45.441Z,1008.55
2023-05-10T03:10:51.614Z,1008.59
2023-05-10T03:11:57.719Z,1008.57
2023-05-10T03:13:03.859Z,1008.57
2023-05-10T03:14:09.954Z,1008.58
2023-05-10T03:15:15.995Z,1008.59
2023-05-10T03:16:22.109Z,1008.53
2023-05-10T03:17:28.208Z,1008.57
2023-05-10T03:18:34.276Z,1008.51
2023-05-10T03:19:40.379Z,1008.52
2023-05-10T03:20:46.379Z,1008.54
2023-05-10T03:21:52.481Z,1008.57
2023-05-10T03:22:58.647Z,1008.57
2023-05-10T03:24:04.741Z,1008.59
2023-05-10T03:25:10.822Z,1008.56
2023-05-10T03:26:16.977Z,1008.55
2023-05-10T03:27:23.084Z,1008.57
2023-05-10T03:28:29.124Z,1008.65
2023-05-10T03:29:35.241Z,1008.59
2023-05-10T03:30:41.334Z,1008.59
2023-05-10T03:31:47.559Z,1008.56
2023-05-10T03:32:53.595Z,1008.55
2023-05-10T03:33:59.607Z,1008.56
2023-05-10T03:35:05.695Z,1008.57
2023-05-10T03:36:11.802Z,1008.51
2023-05-10T03:37:17.886Z,1008.52
2023-05-10T03:38:23.986Z,1008.52
2023-05-10T03:39:30.069Z,1008.54
2023-05-10T03:40:36.160Z,1008.49
2023-05-10T03:41:42.267Z,1008.45
2023-05-10T03:42:48.353Z,1008.45
2023-05-10T03:43:54.452Z,1008.49
2023-05-10T03:45:00.575Z,1008.52
2023-05-10T03:46:06.628Z,1008.46
2023-05-10T03:47:12.735Z,1008.48
2023-05-10T03:48:18.836Z,1008.52
2023-05-10T03:49:24.925Z,1008.43
2023-05-10T03:50:31.023Z,1008.46
2023-05-10T03:51:37.109Z,1008.42
2023-05-10T03:52:43.114Z,1008.41
2023-05-10T03:53:49.211Z,1008.47
2023-05-10T03:54:55.394Z,1008.39
2023-05-10T03:56:01.509Z,1008.41
2023-05-10T03:57:07.582Z,1008.46
2023-05-10T03:58:13.709Z,1008.4
2023-05-10T03:59:19.770Z,1008.4
2023-05-10T04:00:25.868Z,1008.39
2023-05-10T04:01:31.995Z,1008.38
2023-05-10T04:02:38.604Z,1008.37
2023-05-10T04:03:44.242Z,1008.4
2023-05-10T04:04:50.259Z,1008.4
2023-05-10T04:05:56.357Z,1008.37
2023-05-10T04:07:02.456Z,1008.38
2023-05-10T04:08:08.520Z,1008.38
2023-05-10T04:09:14.642Z,1008.38
2023-05-10T04:10:20.716Z,1008.39
2023-05-10T04:11:26.828Z,1008.34
2023-05-10T04:12:32.904Z,1008.4
2023-05-10T04:13:39.036Z,1008.36
2023-05-10T04:14:45.019Z,1008.36
2023-05-10T04:15:51.136Z,1008.33
2023-05-10T04:16:57.263Z,1008.35
2023-05-10T04:18:03.423Z,1008.34
2023-05-10T04:19:09.475Z,1008.3
2023-05-10T04:20:15.969Z,1008.31
2023-05-10T04:21:21.662Z,1008.29
2023-05-10T04:22:27.744Z,1008.3
2023-05-10T04:23:33.879Z,1008.35
2023-05-10T04:24:39.957Z,1008.38
2023-05-10T04:25:46.047Z,1008.33
2023-05-10T04:26:52.180Z,1008.36
2023-05-10T04:27:58.241Z,1008.38
2023-05-10T04:29:04.318Z,1008.36
2023-05-10T04:30:10.444Z,1008.41
2023-05-10T04:31:16.622Z,1008.35
2023-05-10T04:32:22.659Z,1008.37
2023-05-10T04:33:28.718Z,1008.35
2023-05-10T04:34:34.794Z,1008.3
2023-05-10T04:35:40.919Z,1008.33
2023-05-10T04:36:46.992Z,1008.26
2023-05-10T04:37:53.081Z,1008.32
2023-05-10T04:38:59.183Z,1008.27
2023-05-10T04:40:05.322Z,1008.24
2023-05-10T04:41:11.384Z,1008.27
2023-05-10T04:42:17.463Z,1008.21
2023-05-10T04:43:23.560Z,1008.16
2023-05-10T04:44:29.681Z,1008.19
2023-05-10T04:45:35.729Z,1008.2
2023-05-10T04:46:41.852Z,1008.19
2023-05-10T04:47:47.906Z,1008.16
2023-05-10T04:48:54.037Z,1008.16
2023-05-10T04:50:00.119Z,1008.19
2023-05-10T04:51:06.215Z,1008.14
2023-05-10T04:52:12.313Z,1008.15
2023-05-10T04:53:18.401Z,1008.15
2023-05-10T04:54:24.543Z,1008.11
2023-05-10T04:55:30.721Z,1008.2
2023-05-10T04:56:36.701Z,1008.21
2023-05-10T04:57:42.783Z,1008.2
2023-05-10T04:58:48.870Z,1008.27
2023-05-10T04:59:54.880Z,1008.13
2023-05-10T05:01:01.080Z,1008.13
2023-05-10T05:02:07.304Z,1008.18
2023-05-10T05:03:13.340Z,1008.2
2023-05-10T05:04:19.356Z,1008.23
2023-05-10T05:05:25.480Z,1008.3
2023-05-10T05:06:31.573Z,1008.23
2023-05-10T05:07:37.652Z,1008.26
2023-05-10T05:08:43.743Z,1008.23
2023-05-10T05:09:49.755Z,1008.25
2023-05-10T05:10:56.022Z,1008.26
2023-05-10T05:12:02.028Z,1008.27
2023-05-10T05:13:08.285Z,1008.23
2023-05-10T05:14:14.242Z,1008.26
2023-05-10T05:15:20.306Z,1008.29
2023-05-10T05:16:26.410Z,1008.3
2023-05-10T05:17:32.574Z,1008.24
2023-05-10T05:18:38.599Z,1008.31
2023-05-10T05:19:44.748Z,1008.28
2023-05-10T05:20:50.783Z,1008.35
2023-05-10T05:21:56.899Z,1008.24
2023-05-10T05:23:02.989Z,1008.26
2023-05-10T05:24:08.977Z,1008.3
2023-05-10T05:25:15.153Z,1008.3
2023-05-10T05:26:21.282Z,1008.24
2023-05-10T05:27:27.347Z,1008.22
2023-05-10T05:28:33.436Z,1008.22
2023-05-10T05:29:39.519Z,1008.25
2023-05-10T05:30:45.628Z,1008.29
2023-05-10T05:31:53.361Z,1008.23
2023-05-10T05:32:57.892Z,1008.28
2023-05-10T05:34:03.923Z,1008.27
2023-05-10T05:35:10.012Z,1008.25
2023-05-10T05:36:16.110Z,1008.23
2023-05-10T05:37:22.202Z,1008.29
2023-05-10T05:38:28.315Z,1008.23
2023-05-10T05:39:34.557Z,1008.22
2023-05-10T05:40:40.478Z,1008.21
2023-05-10T05:41:46.488Z,1008.16
2023-05-10T05:42:52.624Z,1008.21
2023-05-10T05:43:58.807Z,1008.2
2023-05-10T05:45:04.858Z,1008.27
2023-05-10T05:46:10.993Z,1008.25
2023-05-10T05:47:17.061Z,1008.18
2023-05-10T05:48:23.210Z,1008.23
2023-05-10T05:49:29.250Z,1008.16
2023-05-10T05:50:35.341Z,1008.17
2023-05-10T05:51:41.433Z,1008.17
2023-05-10T05:52:47.533Z,1008.16
2023-05-10T05:53:53.629Z,1008.14
2023-05-10T05:54:59.647Z,1008.17
2023-05-10T05:56:05.832Z,1008.17
2023-05-10T05:57:11.902Z,1008.13
2023-05-10T05:58:18.002Z,1008.16
2023-05-10T05:59:24.090Z,1008.2
2023-05-10T06:00:30.192Z,1008.15
2023-05-10T06:01:36.317Z,1008.18
2023-05-10T06:02:42.484Z,1008.12
2023-05-10T06:03:49.759Z,1008.17
2023-05-10T06:04:54.561Z,1008.23
2023-05-10T06:06:00.656Z,1008.26
2023-05-10T06:07:06.690Z,1008.17
2023-05-10T06:08:12.770Z,1008.18
2023-05-10T06:09:18.963Z,1008.2
2023-05-10T06:10:25.039Z,1008.16
2023-05-10T06:11:31.160Z,1008.14
2023-05-10T06:12:37.231Z,1008.13
2023-05-10T06:13:43.356Z,1008.18
2023-05-10T06:14:49.475Z,1008.17
2023-05-10T06:16:01.709Z,1008.21
2023-05-10T06:17:07.813Z,1008.2
2023-05-10T06:18:13.931Z,1008.18
2023-05-10T06:19:19.928Z,1008.18
2023-05-10T06:20:26.064Z,1008.19
2023-05-10T06:21:32.145Z,1008.18
2023-05-10T06:22:38.241Z,1008.22
2023-05-10T06:23:44.312Z,1008.11
2023-05-10T06:24:50.317Z,1008.11
2023-05-10T06:25:56.511Z,1008.19
2023-05-10T06:27:02.622Z,1008.21
2023-05-10T06:28:08.713Z,1008.17
2023-05-10T06:29:14.790Z,1008.2
2023-05-10T06:30:20.894Z,1008.18
2023-05-10T06:31:27.063Z,1008.14
2023-05-10T06:32:33.115Z,1008.2
2023-05-10T06:33:39.171Z,1008.19
2023-05-10T06:34:45.300Z,1008.17
2023-05-10T06:35:51.374Z,1008.18
2023-05-10T06:38:03.573Z,1008.11
2023-05-10T06:39:09.656Z,1008.1
2023-05-10T06:40:15.758Z,1008.05
2023-05-10T06:41:23.955Z,1008.11
2023-05-10T06:42:27.952Z,1008.2
2023-05-10T06:43:34.034Z,1008.11
2023-05-10T06:44:40.129Z,1008.12
2023-05-10T06:45:46.257Z,1008.1
2023-05-10T06:46:52.344Z,1008.05
2023-05-10T06:47:58.452Z,1008.12
2023-05-10T06:49:04.555Z,1008.1
2023-05-10T06:50:10.601Z,1008.03
2023-05-10T06:51:16.689Z,1008.1
2023-05-10T06:52:22.782Z,1008.13
2023-05-10T06:53:28.890Z,1008.09
2023-05-10T06:54:35.007Z,1008.14
2023-05-10T06:55:41.124Z,1008.11
2023-05-10T06:56:47.160Z,1008.16
2023-05-10T06:57:53.247Z,1008.1
2023-05-10T06:58:59.386Z,1008.17
2023-05-10T07:00:05.536Z,1008.17
2023-05-10T07:01:11.701Z,1008.14
2023-05-10T07:02:17.807Z,1008.13
2023-05-10T07:03:23.815Z,1008.13
2023-05-10T07:04:29.842Z,1008.17
2023-05-10T07:05:36.228Z,1008.14
2023-05-10T07:06:42.025Z,1008.11
2023-05-10T07:07:48.121Z,1008.1
2023-05-10T07:08:54.221Z,1008.06
2023-05-10T07:10:00.350Z,1008.1
2023-05-10T07:11:06.409Z,1008.07
2023-05-10T07:12:14.675Z,1008.1
2023-05-10T07:13:18.640Z,1008.1
2023-05-10T07:14:24.688Z,1008.14
2023-05-10T07:15:30.824Z,1008.13
2023-05-10T07:16:37.033Z,1008.1
2023-05-10T07:17:44.132Z,1008.12
2023-05-10T07:18:49.051Z,1008.13
2023-05-10T07:19:55.147Z,1008.07
2023-05-10T07:21:01.298Z,1008.17
2023-05-10T07:22:07.349Z,1008.13
2023-05-10T07:23:13.434Z,1008.11
2023-05-10T07:24:19.521Z,1008.05
2023-05-10T07:25:25.637Z,1008.16
2023-05-10T07:26:31.747Z,1008.13
2023-05-10T07:27:37.818Z,1008.16
2023-05-10T07:28:43.905Z,1008.1
2023-05-10T07:29:50.005Z,1008.11
2023-05-10T07:30:56.106Z,1008.05
2023-05-10T07:32:02.143Z,1008.12
2023-05-10T07:33:08.312Z,1008.07
2023-05-10T07:34:14.410Z,1008.13
2023-05-10T07:35:20.492Z,1008.08
2023-05-10T07:36:26.567Z,1008.07
2023-05-10T07:37:32.657Z,1008.1
2023-05-10T07:38:40.810Z,1008.13
2023-05-10T07:39:44.859Z,1008.1
2023-05-10T07:40:50.969Z,1008.13
2023-05-10T07:41:57.039Z,1008.11
2023-05-10T07:43:03.176Z,1008.08
2023-05-10T07:44:09.262Z,1008.09
2023-05-10T07:45:15.560Z,1008.13
2023-05-10T07:46:21.556Z,1008.06
2023-05-10T07:47:27.562Z,1008.12
2023-05-10T07:48:33.615Z,1008.11
2023-05-10T07:49:39.710Z,1008.1
2023-05-10T07:50:45.804Z,1008.14
2023-05-10T07:51:51.894Z,1008.14
2023-05-10T07:52:57.914Z,1008.15
2023-05-10T07:54:04.075Z,1008.15
2023-05-10T07:55:10.176Z,1008.1
2023-05-10T07:56:16.287Z,1008.06
2023-05-10T07:57:22.412Z,1008.11
2023-05-10T07:58:28.452Z,1008.09
2023-05-10T07:59:34.569Z,1008.13
2023-05-10T08:00:40.669Z,1008.14
2023-05-10T08:01:46.789Z,1008.09
2023-05-10T08:02:52.873Z,1008.12
2023-05-10T08:03:59.037Z,1008.16
2023-05-10T08:05:04.949Z,1008.1
2023-05-10T08:06:11.056Z,1008.12
2023-05-10T08:07:17.228Z,1008.15
2023-05-10T08:08:23.323Z,1008.17
2023-05-10T08:09:29.433Z,1008.14
2023-05-10T08:10:35.514Z,1008.18
2023-05-10T08:11:41.595Z,1008.17
2023-05-10T08:12:47.707Z,1008.18
2023-05-10T08:13:53.790Z,1008.21
2023-05-10T08:14:59.876Z,1008.21
2023-05-10T08:16:06.033Z,1008.21
2023-05-10T08:17:12.078Z,1008.16
2023-05-10T08:18:18.579Z,1008.21
2023-05-10T08:19:24.250Z,1008.23
2023-05-10T08:20:30.357Z,1008.21
2023-05-10T08:21:36.431Z,1008.27
2023-05-10T08:22:42.549Z,1008.19
2023-05-10T08:23:48.645Z,1008.25
2023-05-10T08:24:54.724Z,1008.2
2023-05-10T08:26:00.735Z,1008.2
2023-05-10T08:27:06.929Z,1008.23
2023-05-10T08:28:13.056Z,1008.24
2023-05-10T08:29:19.122Z,1008.21
2023-05-10T08:30:25.233Z,1008.18
2023-05-10T08:31:31.308Z,1008.3
2023-05-10T08:32:37.435Z,1008.26
2023-05-10T08:33:44.513Z,1008.25
2023-05-10T08:34:49.594Z,1008.23
2023-05-10T08:35:55.681Z,1008.26
2023-05-10T08:37:01.694Z,1008.24
2023-05-10T08:38:07.907Z,1008.3
2023-05-10T08:39:26.620Z,1008.26
2023-05-10T08:40:20.107Z,1008.25
2023-05-10T08:41:26.192Z,1008.29
2023-05-10T08:42:32.266Z,1008.29
2023-05-10T08:43:38.337Z,1008.26
2023-05-10T08:44:44.471Z,1008.27
2023-05-10T08:45:50.554Z,1008.27
2023-05-10T08:46:56.648Z,1008.22
2023-05-10T08:48:02.788Z,1008.22
2023-05-10T08:49:08.855Z,1008.22
2023-05-10T08:50:14.905Z,1008.23
2023-05-10T08:51:20.998Z,1008.27
2023-05-10T08:52:27.087Z,1008.16
2023-05-10T08:53:33.177Z,1008.21
2023-05-10T08:54:39.338Z,1008.26
2023-05-10T08:55:45.375Z,1008.27
2023-05-10T08:56:51.485Z,1008.24
2023-05-10T08:57:57.619Z,1008.23
2023-05-10T08:59:03.675Z,1008.26
2023-05-10T09:00:09.785Z,1008.25
2023-05-10T09:01:15.899Z,1008.21
2023-05-10T09:02:22.065Z,1008.25
2023-05-10T09:03:28.049Z,1008.25
2023-05-10T09:04:34.228Z,1008.22
2023-05-10T09:05:40.245Z,1008.23
2023-05-10T09:06:46.337Z,1008.31
2023-05-10T09:07:52.340Z,1008.28
2023-05-10T09:08:58.426Z,1008.23
2023-05-10T09:10:04.680Z,1008.25
2023-05-10T09:11:10.714Z,1008.29
2023-05-10T09:12:16.849Z,1008.33
2023-05-10T09:13:22.902Z,1008.33
2023-05-10T09:14:29.034Z,1008.35
2023-05-10T09:15:35.103Z,1008.33
2023-05-10T09:16:41.213Z,1008.34
2023-05-10T09:17:47.316Z,1008.37
2023-05-10T09:18:53.386Z,1008.35
2023-05-10T09:19:59.379Z,1008.37
2023-05-10T09:21:05.479Z,1008.47
2023-05-10T09:22:11.661Z,1008.41
2023-05-10T09:23:17.791Z,1008.42
2023-05-10T09:24:23.829Z,1008.41
2023-05-10T09:25:29.978Z,1008.37
2023-05-10T09:26:36.051Z,1008.43
2023-05-10T09:27:42.136Z,1008.43
2023-05-10T09:28:48.219Z,1008.39
2023-05-10T09:29:54.362Z,1008.38
2023-05-10T09:31:00.560Z,1008.34
2023-05-10T09:32:06.510Z,1008.43
2023-05-10T09:33:12.508Z,1008.41
2023-05-10T09:34:18.684Z,1008.45
2023-05-10T09:35:26.564Z,1008.39
2023-05-10T09:36:30.876Z,1008.4
2023-05-10T09:37:36.981Z,1008.43
2023-05-10T09:38:43.060Z,1008.44
2023-05-10T09:40:55.285Z,1008.42
2023-05-10T09:42:01.342Z,1008.41
2023-05-10T09:43:07.389Z,1008.43
2023-05-10T09:44:13.563Z,1008.45
2023-05-10T09:45:19.684Z,1008.48
2023-05-10T09:46:25.861Z,1008.42
2023-05-10T09:47:31.886Z,1008.46
2023-05-10T09:48:37.917Z,1008.45
2023-05-10T09:49:44.109Z,1008.47
2023-05-10T09:50:50.122Z,1008.43
2023-05-10T09:51:56.258Z,1008.42
2023-05-10T09:53:02.320Z,1008.38
2023-05-10T09:54:08.394Z,1008.38
2023-05-10T09:55:14.628Z,1008.37
2023-05-10T09:56:26.791Z,1008.38
2023-05-10T09:57:34.641Z,1008.4
2023-05-10T09:58:38.965Z,1008.46
2023-05-10T09:59:45.031Z,1008.41
2023-05-10T10:00:51.028Z,1008.48
2023-05-10T10:01:57.316Z,1008.41
2023-05-10T10:03:03.390Z,1008.45
2023-05-10T10:04:09.392Z,1008.53
2023-05-10T10:05:15.714Z,1008.48
2023-05-10T10:06:29.511Z,1008.43
2023-05-10T10:07:27.712Z,1008.39
2023-05-10T10:08:33.805Z,1008.38
2023-05-10T10:09:39.818Z,1008.42
2023-05-10T10:10:46.272Z,1008.41
2023-05-10T10:11:51.994Z,1008.4
2023-05-10T10:12:58.188Z,1008.45
2023-05-10T10:14:04.314Z,1008.38
2023-05-10T10:15:10.346Z,1008.43
2023-05-10T10:16:16.479Z,1008.4
2023-05-10T10:17:22.579Z,1008.46
2023-05-10T10:18:28.664Z,1008.38
2023-05-10T10:19:34.742Z,1008.42
2023-05-10T10:20:40.851Z,1008.33
2023-05-10T10:21:46.831Z,1008.37
2023-05-10T10:22:52.936Z,1008.34
2023-05-10T10:23:59.128Z,1008.33
2023-05-10T10:25:05.195Z,1008.31
2023-05-10T10:26:11.283Z,1008.35
2023-05-10T10:27:17.385Z,1008.32
2023-05-10T10:28:23.819Z,1008.31
2023-05-10T10:29:29.611Z,1008.34
2023-05-10T10:30:35.687Z,1008.32
2023-05-10T10:31:41.815Z,1008.25
2023-05-10T10:32:47.892Z,1008.22
2023-05-10T10:33:53.974Z,1008.25
2023-05-10T10:35:00.044Z,1008.25
2023-05-10T10:36:06.169Z,1008.27
2023-05-10T10:37:12.266Z,1008.29
2023-05-10T10:38:18.354Z,1008.21
2023-05-10T10:39:24.489Z,1008.18
2023-05-10T10:40:32.642Z,1008.23
2023-05-10T10:41:36.626Z,1008.21
2023-05-10T10:42:42.704Z,1008.2
2023-05-10T10:43:48.880Z,1008.32
2023-05-10T10:44:54.830Z,1008.29
2023-05-10T10:46:01.019Z,1008.28
2023-05-10T10:47:07.229Z,1008.26
2023-05-10T10:48:13.192Z,1008.26
2023-05-10T10:49:19.268Z,1008.26
2023-05-10T10:50:25.382Z,1008.28
2023-05-10T10:51:31.467Z,1008.29
2023-05-10T10:52:37.562Z,1008.3
2023-05-10T10:53:43.670Z,1008.29
2023-05-10T10:54:49.753Z,1008.29
2023-05-10T10:55:55.855Z,1008.27
2023-05-10T10:57:01.953Z,1008.23
2023-05-10T10:58:08.035Z,1008.23
2023-05-10T10:59:14.141Z,1008.16
2023-05-10T11:00:20.278Z,1008.26
2023-05-10T11:01:26.384Z,1008.21
2023-05-10T11:02:32.456Z,1008.21
2023-05-10T11:03:38.516Z,1008.2
2023-05-10T11:04:44.749Z,1008.22
2023-05-10T11:05:50.767Z,1008.22
2023-05-10T11:06:56.792Z,1008.17
2023-05-10T11:08:02.899Z,1008.22
2023-05-10T11:09:08.984Z,1008.17
2023-05-10T11:10:15.152Z,1008.17
2023-05-10T11:11:21.165Z,1008.18
2023-05-10T11:12:27.273Z,1008.19
2023-05-10T11:13:33.350Z,1008.21
2023-05-10T11:14:39.452Z,1008.23
2023-05-10T11:15:45.532Z,1008.25
2023-05-10T11:16:51.707Z,1008.23
2023-05-10T11:17:57.669Z,1008.18
2023-05-10T11:19:04.015Z,1008.18
2023-05-10T11:20:09.963Z,1008.2
2023-05-10T11:21:16.049Z,1008.17
2023-05-10T11:22:22.149Z,1008.19
2023-05-10T11:23:28.201Z,1008.15
2023-05-10T11:24:34.331Z,1008.2
2023-05-10T11:25:40.447Z,1008.19
2023-05-10T11:26:46.498Z,1008.25
2023-05-10T11:27:52.501Z,1008.23
2023-05-10T11:28:58.600Z,1008.19
2023-05-10T11:30:05.106Z,1008.13
2023-05-10T11:31:10.913Z,1008.08
2023-05-10T11:32:16.958Z,1008.15
2023-05-10T11:33:23.086Z,1008.22
2023-05-10T11:34:29.148Z,1008.18
2023-05-10T11:35:35.243Z,1008.13
2023-05-10T11:36:41.350Z,1008.12
2023-05-10T11:37:47.435Z,1008.17
2023-05-10T11:38:53.565Z,1008.14
2023-05-10T11:39:59.548Z,1008.17
2023-05-10T11:41:05.644Z,1008.13
2023-05-10T11:42:11.857Z,1008.16
2023-05-10T11:43:17.908Z,1008.14
2023-05-10T11:44:24.007Z,1008.12
2023-05-10T11:45:30.128Z,1008.11
2023-05-10T11:46:36.220Z,1008.12
2023-05-10T11:47:42.876Z,1008.17
2023-05-10T11:48:48.380Z,1008.15
2023-05-10T11:49:54.480Z,1008.16
2023-05-10T11:51:00.576Z,1008.11
2023-05-10T11:52:06.683Z,1008.17
2023-05-10T11:53:12.754Z,1008.15
2023-05-10T11:54:18.884Z,1008.09
2023-05-10T11:55:24.967Z,1008.04
2023-05-10T11:56:31.082Z,1008.14
2023-05-10T11:57:37.157Z,1008.09
2023-05-10T11:58:43.241Z,1008.09
2023-05-10T11:59:49.355Z,1008.09
2023-05-10T12:00:55.347Z,1008.1
2023-05-10T12:02:01.536Z,1008.14
2023-05-10T12:03:07.763Z,1008.22
2023-05-10T12:04:13.807Z,1008.19
2023-05-10T12:05:19.791Z,1008.26
2023-05-10T12:06:25.934Z,1008.16
2023-05-10T12:07:31.987Z,1008.19
2023-05-10T12:08:38.091Z,1008.16
2023-05-10T12:09:44.529Z,1008.18
2023-05-10T12:10:50.307Z,1008.17
2023-05-10T12:11:56.362Z,1008.12
2023-05-10T12:13:02.462Z,1008.15
2023-05-10T12:14:08.485Z,1008.15
2023-05-10T12:15:14.665Z,1008.22
2023-05-10T12:16:20.826Z,1008.24
2023-05-10T12:17:26.859Z,1008.2
2023-05-10T12:18:32.975Z,1008.21
2023-05-10T12:19:39.027Z,1008.21
2023-05-10T12:20:45.118Z,1008.18
2023-05-10T12:21:51.217Z,1008.15
2023-05-10T12:22:59.632Z,1008.12
2023-05-10T12:24:03.409Z,1008.17
2023-05-10T12:25:09.419Z,1008.17
2023-05-10T12:26:15.621Z,1008.18
2023-05-10T12:27:21.698Z,1008.19
2023-05-10T12:28:27.828Z,1008.23
2023-05-10T12:29:33.884Z,1008.23
2023-05-10T12:30:40.000Z,1008.25
2023-05-10T12:31:46.145Z,1008.2
2023-05-10T12:32:52.294Z,1008.21
2023-05-10T12:33:58.252Z,1008.16
2023-05-10T12:35:04.355Z,1008.12
2023-05-10T12:36:10.369Z,1008.18
2023-05-10T12:37:16.474Z,1008.17
2023-05-10T12:38:22.652Z,1008.15
2023-05-10T12:39:28.721Z,1008.18
2023-05-10T12:40:34.857Z,1008.2
2023-05-10T12:41:43.454Z,1008.17
2023-05-10T12:42:47.033Z,1008.19
2023-05-10T12:43:53.126Z,1008.19
2023-05-10T12:44:59.125Z,1008.23
2023-05-10T12:46:05.363Z,1008.25
2023-05-10T12:47:11.418Z,1008.24
2023-05-10T12:48:17.505Z,1008.2
2023-05-10T12:49:23.600Z,1008.24
2023-05-10T12:50:29.705Z,1008.28
2023-05-10T12:51:35.828Z,1008.33
2023-05-10T12:52:41.874Z,1008.25
2023-05-10T12:53:49.458Z,1008.25
2023-05-10T12:54:54.073Z,1008.24
2023-05-10T12:56:00.122Z,1008.26
2023-05-10T12:57:06.300Z,1008.24
2023-05-10T12:58:15.785Z,1008.18
2023-05-10T12:59:18.511Z,1008.23
2023-05-10T13:00:24.545Z,1008.26
2023-05-10T13:01:30.669Z,1008.25
2023-05-10T13:02:36.734Z,1008.26
2023-05-10T13:03:42.821Z,1008.23
2023-05-10T13:04:51.036Z,1008.27
2023-05-10T13:05:55.046Z,1008.18
2023-05-10T13:07:01.130Z,1008.23
2023-05-10T13:08:07.116Z,1008.19
2023-05-10T13:09:13.208Z,1008.19
2023-05-10T13:10:19.713Z,1008.21
2023-05-10T13:11:25.483Z,1008.26
2023-05-10T13:12:31.596Z,1008.22
2023-05-10T13:13:37.675Z,1008.21
2023-05-10T13:14:43.804Z,1008.2
2023-05-10T13:15:49.866Z,1008.24
2023-05-10T13:16:56.077Z,1008.2
2023-05-10T13:18:02.105Z,1008.16
2023-05-10T13:19:08.185Z,1008.23
2023-05-10T13:20:14.272Z,1008.26
2023-05-10T13:21:20.362Z,1008.2
2023-05-10T13:22:39.153Z,1008.19
2023-05-10T13:23:32.574Z,1008.21
2023-05-10T13:24:38.644Z,1008.2
2023-05-10T13:25:44.715Z,1008.17